• Join FlightAware (Why Join?)
  • Login
  • US Flag 
10:09PM EDT


 

Airport Tracker/Info


-or-


 

Live Flight TrackerFlight Track Log ✈ UPS104 ✈ 24-Oct-2013 ✈ PANC - RJBB / KIX

Flight Track Log - Related Links

Times and Time Zones

All times are in EDT time to prevent confusion due to time zone crossing. See the UPS104 flight status page for this flight to view local times or setup timezone preferences in your user account.

Time Position Orientation Groundspeed Altitude Reporting Facility
EDT Latitude Longitude Course Direction KTS MPH feet Rate Location/Type
01:14PM 62.0833 -152.7000 299° West 450 518 34,000  Level Anchorage Center
01:19PM 62.3900 -153.9370 293° West 460 529 34,000  Level FlightAware
01:20PM 62.4424 -154.1988 293° West 460 529 34,000  Level FlightAware ADS-B (EBTY)
01:20PM 62.4648 -154.3198 292° West 462 532 34,000  Level FlightAware ADS-B (EBTY)
01:21PM 62.4886 -154.4495 292° West 462 532 34,000  Level FlightAware ADS-B (EBTY)
01:21PM 62.5209 -154.6263 292° West 463 533 34,000  Level FlightAware ADS-B (EBTY)
01:22PM 62.5503 -154.7882 292° West 462 532 34,000  Level FlightAware ADS-B (EBTY)
01:23PM 62.5806 -154.9556 292° West 463 533 34,000  Level FlightAware ADS-B (EBTY)
01:23PM 62.6074 -155.1041 291° West 463 533 34,000  Level FlightAware ADS-B (EBTY)
01:24PM 62.6326 -155.2461 291° West 463 533 34,000  Level FlightAware ADS-B (EBTY)
01:25PM 62.6740 -155.4820 291° West 462 532 34,000  Level FlightAware
01:25PM 62.6890 -155.5710 290° West 462 532 34,000  Level FlightAware
01:27PM 62.7440 -155.8820 291° West 462 532 34,000  Level FlightAware
01:27PM 62.7600 -155.9740 291° West 462 532 34,000  Level FlightAware
01:28PM 62.7840 -156.1080 291° West 462 532 34,000  Level FlightAware
01:28PM 62.8070 -156.2410 291° West 462 532 34,000  Level FlightAware
01:29PM 62.8380 -156.4160 291° West 462 532 34,000  Level FlightAware
01:30PM 62.8700 -156.6020 291° West 462 532 34,000  Level FlightAware
01:31PM 62.9020 -156.7840 291° West 462 532 34,000  Level FlightAware
01:31PM 62.9240 -156.9110 291° West 462 532 34,000  Level FlightAware
01:32PM 62.9480 -157.0490 291° West 462 532 34,000  Level FlightAware
01:33PM 62.9720 -157.1870 291° West 462 532 34,000  Level FlightAware
01:34PM 63.0667 -157.9000 291° West 460 529 34,000  Level Anchorage Center
01:35PM 63.1000 -158.1667 286° West 480 552 34,000  Level Anchorage Center
01:36PM 63.1500 -158.4500 291° West 470 541 34,000  Level Anchorage Center
01:37PM 63.1833 -158.7333 285° West 460 529 34,000  Level Anchorage Center
01:38PM 63.2333 -159.0167 292° West 470 541 34,000  Level Anchorage Center
01:39PM 63.2667 -159.2833 286° West 480 552 34,000  Level Anchorage Center
01:40PM 63.3000 -159.5667 285° West 480 552 34,000  Level Anchorage Center
01:41PM 63.3500 -159.8500 292° West 470 541 34,000  Level Anchorage Center
01:42PM 63.3833 -160.1333 285° West 460 529 34,000  Level Anchorage Center
01:43PM 63.4167 -160.4167 285° West 470 541 34,000  Level Anchorage Center
01:44PM 63.4500 -160.6833 286° West 460 529 34,000  Level Anchorage Center
01:45PM 63.5000 -160.9667 292° West 460 529 34,000  Level Anchorage Center
01:46PM 63.5333 -161.2500 285° West 470 541 34,000  Level Anchorage Center
01:47PM 63.5667 -161.5333 285° West 470 541 34,000  Level Anchorage Center
01:48PM 63.6000 -161.8167 285° West 470 541 34,000  Level Anchorage Center
01:49PM 63.6333 -162.1000 285° West 470 541 34,000  Level Anchorage Center
01:50PM 63.6667 -162.3833 285° West 470 541 34,000  Level Anchorage Center
01:51PM 63.7000 -162.6667 285° West 470 541 34,000  Level Anchorage Center
01:52PM 63.7333 -162.9667 284° West 480 552 34,000  Level Anchorage Center
01:53PM 63.7667 -163.2667 284° West 480 552 34,000  Level Anchorage Center
01:54PM 63.8000 -163.5500 285° West 480 552 34,000  Level Anchorage Center
01:55PM 63.8333 -163.8500 284° West 480 552 34,000  Level Anchorage Center
01:56PM 63.8500 -164.1500 277° West 480 552 34,000  Level Anchorage Center
01:57PM 63.8833 -164.4500 284° West 490 564 34,000  Level Anchorage Center
01:58PM 63.9167 -164.7333 285° West 480 552 34,000  Level Anchorage Center
01:59PM 63.9500 -165.0333 284° West 480 552 34,000  Level Anchorage Center
02:00PM 63.9833 -165.3333 284° West 470 541 34,000  Level Anchorage Center
02:01PM 64.0000 -165.6167 278° West 470 541 34,000  Level Anchorage Center
02:02PM 64.0333 -165.9167 284° West 480 552 34,000  Level Anchorage Center
02:03PM 64.0500 -166.2167 277° West 480 552 34,000  Level Anchorage Center
02:04PM 64.0833 -166.5833 282° West 470 541 34,000  Level Anchorage Center
02:05PM 64.1000 -166.8667 278° West 460 529 34,000  Level Anchorage Center
02:06PM 64.1333 -167.1667 284° West 470 541 34,000  Level Anchorage Center
02:07PM 64.1500 -167.4000 279° West 470 541 34,000  Level Anchorage Center
02:08PM 64.1833 -167.7500 282° West 470 541 34,000  Level Anchorage Center
02:09PM 64.2000 -168.0000 279° West 460 529 34,000  Level Anchorage Center
02:10PM 64.2167 -168.3500 276° West 470 541 34,000  Level Anchorage Center
02:11PM 64.2500 -168.6500 284° West 470 541 34,000  Level Anchorage Center
02:12PM 64.2667 -168.9500 277° West 470 541 34,000  Level Anchorage Center
02:13PM 64.2833 -169.2333 278° West 460 529 34,000  Level Anchorage Center
02:14PM 64.3000 -169.5333 277° West 460 529 34,000  Level Anchorage Center
02:15PM 64.3167 -169.8333 277° West 460 529 34,000  Level Anchorage Center
02:16PM 64.3333 -170.1167 278° West 460 529 34,000  Level Anchorage Center
02:17PM 64.3500 -170.4167 277° West 460 529 34,000  Level Anchorage Center
02:18PM 64.3667 -170.7167 277° West 460 529 34,000  Level Anchorage Center
02:19PM 64.3833 -171.0167 277° West 470 541 34,000  Level Anchorage Center
02:20PM 64.3833 -171.3167 270° West 470 541 34,000  Level Anchorage Center
02:22PM 64.3250 -171.7605 253° West  Level Estimated
02:29PM 64.0319 -173.8291 253° West  Level Estimated
02:30PM 63.9877 -174.1210 251° West  Level Estimated
02:31PM 63.9428 -174.4119 251° West  Level Estimated
02:32PM 63.8974 -174.7019 251° West  Level Estimated
02:33PM 63.8514 -174.9910 250° West  Level Estimated
02:34PM 63.8049 -175.2791 250° West  Level Estimated
02:35PM 63.7577 -175.5663 250° West  Level Estimated
02:35PM 64.4590 -175.6300 250° West 468 539 34,000  Level FlightAware
02:35PM 64.4730 -175.8380 279° West 468 539 34,000  Level FlightAware
02:36PM 64.4840 -176.0100 279° West 468 539 34,000  Level FlightAware
02:36PM 64.4940 -176.1760 278° West 467 537 34,000  Level FlightAware
02:37PM 64.5060 -176.3660 278° West 467 537 34,000  Level FlightAware
02:38PM 64.5150 -176.5210 278° West 467 537 34,000  Level FlightAware
02:38PM 64.5270 -176.7370 277° West 468 539 34,000  Level FlightAware
02:39PM 64.5340 -176.8460 279° West 468 539 34,000  Level FlightAware
02:40PM 64.5540 -177.2220 277° West 468 539 34,000  Level FlightAware
02:40PM 64.5630 -177.3740 278° West 468 539 34,000  Level FlightAware
02:41PM 64.5720 -177.5590 277° West 469 540 34,000  Level FlightAware
02:42PM 64.5810 -177.7340 277° West 470 541 34,000  Level FlightAware
02:42PM 64.5860 -177.8250 277° West 470 541 34,000  Level FlightAware
02:43PM 64.5970 -178.0450 277° West 472 543 34,000  Level FlightAware
02:43PM 64.6050 -178.2300 276° West 472 543 34,000  Level FlightAware
02:44PM 64.6150 -178.4230 277° West 472 543 34,000  Level FlightAware
02:44PM 64.6210 -178.5780 275° West 473 544 34,000  Level FlightAware
02:45PM 64.6320 -178.8110 276° West 474 545 34,000  Level FlightAware
02:46PM 64.6400 -179.0100 275° West 474 545 34,000  Level FlightAware
02:46PM 64.6450 -179.1220 276° West 475 547 34,000  Level FlightAware
02:47PM 64.6520 -179.3090 275° West 475 547 34,000  Level FlightAware
02:48PM 64.6650 -179.6460 275° West 477 549 34,000  Level FlightAware
02:48PM 64.6690 -179.7440 275° West 477 549 34,000  Level FlightAware
02:49PM 64.6780 -179.9910 275° West 478 550 34,000  Level FlightAware
02:50PM 64.6830 179.8500 274° West 479 551 34,000  Level FlightAware
02:50PM 64.6900 179.6390 275° West 480 552 34,000  Level FlightAware
02:51PM 64.6950 179.4590 274° West 481 554 34,000  Level FlightAware
02:52PM 64.7010 179.2320 274° West 482 555 34,000  Level FlightAware
02:52PM 64.7050 179.1040 274° West 483 556 34,000  Level FlightAware
02:53PM 64.7110 178.8730 274° West 483 556 34,000  Level FlightAware
02:53PM 64.7150 178.6910 273° West 483 556 34,000  Level FlightAware
02:54PM 64.7230 178.3450 273° West 486 559 34,000  Level FlightAware
02:55PM 64.7250 178.2030 272° West 486 559 34,000  Level FlightAware
02:55PM 64.7240 178.3030 91° East 486 559 34,000  Level FlightAware
02:56PM 64.7260 178.1930 272° West 488 562 34,000  Level FlightAware
02:57PM 64.7320 177.8070 272° West 488 562 34,000  Level FlightAware
02:58PM 64.7340 177.6540 272° West 488 562 34,000  Level FlightAware
02:59PM 64.7390 177.3310 272° West 488 562 34,000  Level FlightAware
03:01PM 64.7500 176.3720 272° West 495 570 34,000  Level FlightAware
03:01PM 64.7510 176.2110 271° West 495 570 34,000  Level FlightAware
03:02PM 64.7510 176.1210 270° West 495 570 34,000  Level FlightAware
03:03PM 64.7520 175.9440 271° West 495 570 34,000  Level FlightAware
03:04PM 64.7520 175.6170 270° West 495 570 34,000  Level FlightAware
03:05PM 64.7520 175.2770 270° West 495 570 34,000  Level FlightAware
03:05PM 64.7520 175.0570 270° West 495 570 34,000  Level FlightAware
03:06PM 64.7510 174.8280 270° West 495 570 34,000  Level FlightAware
03:07PM 64.7490 174.4630 269° West 496 571 34,000  Level FlightAware
03:08PM 64.7470 174.1890 269° West 496 571 34,000  Level FlightAware
03:09PM 64.7450 173.9440 269° West 496 571 34,000  Level FlightAware
03:09PM 64.7430 173.7640 269° West 497 572 34,000  Level FlightAware
03:10PM 64.7400 173.5560 268° West 498 573 34,000  Level FlightAware
03:10PM 64.7370 173.3630 268° West 498 573 34,000  Level FlightAware
03:12PM 64.7310 172.9650 268° West 498 573 34,000  Level FlightAware
03:12PM 64.7280 172.7580 268° West 498 573 34,000  Level FlightAware
03:13PM 64.7230 172.5280 267° West 499 574 34,000  Level FlightAware
03:14PM 64.7200 172.3500 268° West 499 574 34,000  Level FlightAware
03:14PM 64.7150 172.1620 267° West 499 574 34,000  Level FlightAware
03:15PM 64.7100 171.9000 268° West 499 574 34,000  Level FlightAware
03:16PM 64.7060 171.7730 266° West 499 574 34,000  Level FlightAware
03:16PM 64.7030 171.6390 267° West 500 575 34,000  Level FlightAware
03:17PM 64.6930 171.2580 267° West 501 577 34,000  Level FlightAware
03:18PM 64.6880 171.0930 266° West 501 577 34,000  Level FlightAware
03:18PM 64.6820 170.9230 265° West 501 577 34,000  Level FlightAware
03:19PM 64.6770 170.7570 266° West 501 577 34,000  Level FlightAware
03:20PM 64.6690 170.4820 266° West 501 577 34,000  Level FlightAware
03:20PM 64.6660 170.3800 266° West 501 577 34,000  Level FlightAware
03:21PM 64.6590 170.1600 266° West 501 577 34,000  Level FlightAware
03:22PM 64.6540 169.9950 266° West 501 577 34,000  Level FlightAware
03:22PM 64.6500 169.8290 267° West 501 577 34,000  Level FlightAware
03:23PM 64.6460 169.7190 265° West 501 577 34,000  Level FlightAware
03:23PM 64.6410 169.5490 266° West 501 577 34,000  Level FlightAware
03:24PM 64.6340 169.3160 266° West 501 577 34,000  Level FlightAware
03:25PM 64.6290 169.1500 266° West 501 577 34,000  Level FlightAware
03:25PM 64.6240 168.9850 266° West 501 577 34,000  Level FlightAware
03:26PM 64.6170 168.7610 266° West 501 577 34,000  Level FlightAware
03:27PM 64.6140 168.6550 266° West 501 577 34,000  Level FlightAware
03:30PM 64.3679 167.9789 230° Southwest  Level Estimated
03:31PM 64.2798 167.7417 229° Southwest  Level Estimated
03:32PM 64.1914 167.5061 229° Southwest  Level Estimated
03:33PM 64.1025 167.2720 229° Southwest  Level Estimated
03:34PM 64.0133 167.0393 229° Southwest  Level Estimated
03:35PM 63.9237 166.8082 229° Southwest  Level Estimated
03:36PM 63.8337 166.5785 228° Southwest  Level Estimated
03:37PM 63.7434 166.3503 228° Southwest  Level Estimated
03:38PM 63.6527 166.1236 228° Southwest  Level Estimated
03:39PM 63.5616 165.8983 228° Southwest  Level Estimated
03:40PM 63.4702 165.6744 228° Southwest  Level Estimated
03:41PM 63.3785 165.4520 227° Southwest  Level Estimated
03:42PM 63.2864 165.2310 227° Southwest  Level Estimated
03:43PM 63.1940 165.0114 227° Southwest  Level Estimated
03:44PM 63.1012 164.7932 227° Southwest  Level Estimated
03:45PM 63.0082 164.5764 227° Southwest  Level Estimated
03:46PM 62.9147 164.3609 226° Southwest  Level Estimated
03:47PM 62.8210 164.1469 226° Southwest  Level Estimated
03:48PM 62.7269 163.9342 226° Southwest  Level Estimated
03:49PM 62.6325 163.7228 226° Southwest  Level Estimated
03:50PM 62.5378 163.5128 226° Southwest  Level Estimated
03:51PM 62.4428 163.3042 226° Southwest  Level Estimated
03:52PM 62.3475 163.0968 225° Southwest  Level Estimated
03:53PM 62.2518 162.8908 225° Southwest  Level Estimated
03:54PM 62.1559 162.6861 225° Southwest  Level Estimated
03:55PM 62.0597 162.4826 225° Southwest  Level Estimated
03:56PM 61.9631 162.2805 225° Southwest  Level Estimated
03:57PM 61.8663 162.0796 224° Southwest  Level Estimated
03:58PM 61.7692 161.8800 224° Southwest  Level Estimated
03:59PM 61.6717 161.6817 224° Southwest  Level Estimated
04:00PM 61.5741 161.4846 224° Southwest  Level Estimated
04:01PM 61.4761 161.2888 224° Southwest  Level Estimated
04:02PM 61.3778 161.0941 224° Southwest  Level Estimated
04:03PM 61.2793 160.9007 223° Southwest  Level Estimated
04:04PM 61.1805 160.7086 223° Southwest  Level Estimated
04:05PM 61.0814 160.5176 223° Southwest  Level Estimated
04:06PM 60.9821 160.3278 223° Southwest  Level Estimated
04:07PM 60.8825 160.1392 223° Southwest  Level Estimated
04:08PM 60.7826 159.9517 223° Southwest  Level Estimated
04:09PM 60.6824 159.7655 222° Southwest  Level Estimated
04:10PM 60.5821 159.5804 222° Southwest  Level Estimated
04:11PM 60.4814 159.3964 222° Southwest  Level Estimated
04:12PM 60.3805 159.2136 222° Southwest  Level Estimated
04:13PM 60.2794 159.0319 222° Southwest  Level Estimated
04:14PM 60.1780 158.8513 222° Southwest  Level Estimated
04:15PM 60.0764 158.6719 221° Southwest  Level Estimated
04:16PM 59.9745 158.4935 221° Southwest  Level Estimated
04:17PM 59.8724 158.3163 221° Southwest  Level Estimated
04:18PM 59.7700 158.1401 221° Southwest  Level Estimated
04:19PM 59.6675 157.9650 221° Southwest  Level Estimated
04:20PM 59.5646 157.7910 221° Southwest  Level Estimated
04:21PM 59.4616 157.6180 220° Southwest  Level Estimated
04:22PM 59.3583 157.4461 220° Southwest  Level Estimated
04:23PM 59.2548 157.2753 220° Southwest  Level Estimated
04:24PM 59.1511 157.1054 220° Southwest  Level Estimated
04:25PM 59.0472 156.9366 220° Southwest  Level Estimated
04:26PM 58.9430 156.7688 220° Southwest  Level Estimated
04:27PM 58.8386 156.6021 220° Southwest  Level Estimated
04:28PM 58.7340 156.4363 219° Southwest  Level Estimated
04:29PM 58.6292 156.2715 219° Southwest  Level Estimated
04:30PM 58.5242 156.1078 219° Southwest  Level Estimated
04:31PM 58.4190 155.9449 219° Southwest  Level Estimated
04:32PM 58.3136 155.7831 219° Southwest  Level Estimated
04:33PM 58.2080 155.6222 219° Southwest  Level Estimated
04:34PM 58.1021 155.4623 219° Southwest  Level Estimated
04:35PM 57.9961 155.3033 218° Southwest  Level Estimated
04:36PM 57.8899 155.1453 218° Southwest  Level Estimated
04:37PM 57.7835 154.9882 218° Southwest  Level Estimated
04:38PM 57.6769 154.8320 218° Southwest  Level Estimated
04:39PM 57.5701 154.6768 218° Southwest  Level Estimated
04:40PM 57.4631 154.5224 218° Southwest  Level Estimated
04:41PM 57.3559 154.3690 218° Southwest  Level Estimated
04:42PM 57.2485 154.2164 218° Southwest  Level Estimated
04:43PM 57.1410 154.0647 217° Southwest  Level Estimated
04:44PM 57.0333 153.9140 217° Southwest  Level Estimated
04:45PM 56.9254 153.7640 217° Southwest  Level Estimated
04:46PM 56.8173 153.6150 217° Southwest  Level Estimated
04:47PM 56.7090 153.4668 217° Southwest  Level Estimated
04:48PM 56.6006 153.3195 217° Southwest  Level Estimated
04:49PM 56.4920 153.1730 217° Southwest  Level Estimated
04:50PM 56.3832 153.0273 217° Southwest  Level Estimated
04:51PM 56.2742 152.8825 216° Southwest  Level Estimated
04:52PM 56.1651 152.7385 216° Southwest  Level Estimated
04:53PM 56.0558 152.5953 216° Southwest  Level Estimated
04:54PM 55.9464 152.4529 216° Southwest  Level Estimated
04:55PM 55.8367 152.3113 216° Southwest  Level Estimated
04:56PM 55.7270 152.1705 216° Southwest  Level Estimated
04:57PM 55.6170 152.0305 216° Southwest  Level Estimated
04:58PM 55.5069 151.8913 216° Southwest  Level Estimated
04:59PM 55.3967 151.7529 216° Southwest  Level Estimated
05:00PM 55.2863 151.6152 215° Southwest  Level Estimated
05:01PM 55.1757 151.4783 215° Southwest  Level Estimated
05:02PM 55.0650 151.3422 215° Southwest  Level Estimated
05:03PM 54.9541 151.2068 215° Southwest  Level Estimated
05:04PM 54.8431 151.0722 215° Southwest  Level Estimated
05:05PM 54.7319 150.9383 215° Southwest  Level Estimated
05:06PM 54.6206 150.8051 215° Southwest  Level Estimated
05:07PM 54.5092 150.6727 215° Southwest  Level Estimated
05:08PM 54.3976 150.5410 215° Southwest  Level Estimated
05:09PM 54.2858 150.4099 214° Southwest  Level Estimated
05:10PM 54.1740 150.2797 214° Southwest  Level Estimated
05:11PM 54.0619 150.1501 214° Southwest  Level Estimated
05:12PM 53.9498 150.0212 214° Southwest  Level Estimated
05:13PM 53.8375 149.8930 214° Southwest  Level Estimated
05:14PM 53.7250 149.7655 214° Southwest  Level Estimated
05:15PM 53.6125 149.6386 214° Southwest  Level Estimated
05:16PM 53.4998 149.5125 214° Southwest  Level Estimated
05:17PM 53.3869 149.3870 214° Southwest  Level Estimated
05:18PM 53.2740 149.2621 213° Southwest  Level Estimated
05:19PM 53.1609 149.1380 213° Southwest  Level Estimated
05:20PM 53.0476 149.0145 213° Southwest  Level Estimated
05:21PM 52.9343 148.8916 213° Southwest  Level Estimated
05:22PM 52.8208 148.7693 213° Southwest  Level Estimated
05:23PM 52.7072 148.6478 213° Southwest  Level Estimated
05:24PM 52.5935 148.5268 213° Southwest  Level Estimated
05:25PM 52.4796 148.4065 213° Southwest  Level Estimated
05:26PM 52.3657 148.2868 213° Southwest  Level Estimated
05:27PM 52.2516 148.1677 213° Southwest  Level Estimated
05:28PM 52.1374 148.0492 212° Southwest  Level Estimated
05:29PM 52.0230 147.9313 212° Southwest  Level Estimated
05:30PM 51.9086 147.8141 212° Southwest  Level Estimated
05:31PM 51.7940 147.6974 212° Southwest  Level Estimated
05:32PM 51.6794 147.5813 212° Southwest  Level Estimated
05:33PM 51.5646 147.4658 212° Southwest  Level Estimated
05:34PM 51.4497 147.3509 212° Southwest  Level Estimated
05:35PM 51.3347 147.2365 212° Southwest  Level Estimated
05:36PM 51.2195 147.1228 212° Southwest  Level Estimated
05:37PM 51.1043 147.0096 212° Southwest  Level Estimated
05:38PM 50.9890 146.8969 212° Southwest  Level Estimated
05:39PM 50.8735 146.7848 212° Southwest  Level Estimated
05:40PM 50.7580 146.6733 211° Southwest  Level Estimated
05:41PM 50.6423 146.5623 211° Southwest  Level Estimated
05:42PM 50.5265 146.4519 211° Southwest  Level Estimated
05:43PM 50.4107 146.3420 211° Southwest  Level Estimated
05:44PM 50.2947 146.2327 211° Southwest  Level Estimated
05:45PM 50.1786 146.1239 211° Southwest  Level Estimated
05:46PM 50.0624 146.0156 211° Southwest  Level Estimated
05:47PM 49.9461 145.9078 211° Southwest  Level Estimated
05:48PM 49.8298 145.8005 211° Southwest  Level Estimated
05:49PM 49.7133 145.6938 211° Southwest  Level Estimated
05:50PM 49.5967 145.5876 211° Southwest  Level Estimated
05:51PM 49.4800 145.4819 210° Southwest  Level Estimated
05:52PM 49.3633 145.3767 210° Southwest  Level Estimated
05:53PM 49.2464 145.2720 210° Southwest  Level Estimated
05:54PM 49.1295 145.1677 210° Southwest  Level Estimated
05:55PM 49.0124 145.0640 210° Southwest  Level Estimated
05:56PM 48.8953 144.9608 210° Southwest  Level Estimated
05:57PM 48.7780 144.8580 210° Southwest  Level Estimated
05:58PM 48.6607 144.7557 210° Southwest  Level Estimated
05:59PM 48.5433 144.6539 210° Southwest  Level Estimated
06:00PM 48.4258 144.5526 210° Southwest  Level Estimated
06:01PM 48.3082 144.4517 210° Southwest  Level Estimated
06:02PM 48.1905 144.3513 210° Southwest  Level Estimated
06:03PM 48.0728 144.2514 210° Southwest  Level Estimated
06:04PM 47.9549 144.1519 209° Southwest  Level Estimated
06:05PM 47.8370 144.0529 209° Southwest  Level Estimated
06:06PM 47.7189 143.9543 209° Southwest  Level Estimated
06:07PM 47.6008 143.8562 209° Southwest  Level Estimated
06:08PM 47.4827 143.7585 209° Southwest  Level Estimated
06:09PM 47.3644 143.6612 209° Southwest  Level Estimated
06:10PM 47.2460 143.5644 209° Southwest  Level Estimated
06:11PM 47.1276 143.4680 209° Southwest  Level Estimated
06:12PM 47.0091 143.3720 209° Southwest  Level Estimated
06:13PM 46.8905 143.2765 209° Southwest  Level Estimated
06:14PM 46.7718 143.1814 209° Southwest  Level Estimated
06:15PM 46.6530 143.0867 209° Southwest  Level Estimated
06:16PM 46.5342 142.9924 209° Southwest  Level Estimated
06:17PM 46.4153 142.8985 209° Southwest  Level Estimated
06:18PM 46.2963 142.8051 208° Southwest  Level Estimated
06:19PM 46.1772 142.7120 208° Southwest  Level Estimated
06:20PM 46.0581 142.6194 208° Southwest  Level Estimated
06:21PM 45.9389 142.5271 208° Southwest  Level Estimated
06:22PM 45.8196 142.4353 208° Southwest  Level Estimated
06:23PM 45.7002 142.3438 208° Southwest  Level Estimated
06:24PM 45.5808 142.2527 208° Southwest  Level Estimated
06:25PM 45.4613 142.1621 208° Southwest  Level Estimated
06:26PM 45.3417 142.0718 208° Southwest  Level Estimated
06:27PM 45.2221 141.9818 208° Southwest  Level Estimated
06:27PM 45.8790 144.2970 208° Southwest 360 414 34,000  Level FlightAware
06:28PM 45.1024 141.8923 208° Southwest  Level Estimated
06:28PM 45.7690 144.1950 213° Southwest 362 417 34,000  Level FlightAware
06:28PM 45.7360 144.1650 212° Southwest 364 419 34,000  Level FlightAware
06:29PM 45.7000 144.1320 213° Southwest 364 419 34,000  Level FlightAware
06:30PM 45.6120 144.0520 212° Southwest 364 419 34,000  Level FlightAware
06:30PM 45.5500 143.9950 213° Southwest 364 419 34,000  Level FlightAware
06:31PM 45.4780 143.9300 212° Southwest 363 418 34,000  Level FlightAware
06:32PM 45.3960 143.8570 212° Southwest 362 417 34,000  Level FlightAware
06:33PM 45.3200 143.7880 213° Southwest 362 417 34,000  Level FlightAware
06:34PM 45.2390 143.7150 212° Southwest 362 417 34,000  Level FlightAware
06:35PM 45.1550 143.6430 211° Southwest 359 413 34,000  Level FlightAware
06:36PM 45.0820 143.5840 210° Southwest 359 413 34,000  Level FlightAware
06:37PM 45.0090 143.5240 210° Southwest 359 413 34,000  Level FlightAware
06:38PM 44.9370 143.4650 210° Southwest 359 413 34,000  Level FlightAware
06:39PM 44.8440 143.3890 210° Southwest 360 414 34,000  Level FlightAware
06:39PM 44.7720 143.3310 210° Southwest 360 414 34,000  Level FlightAware
06:40PM 44.7100 143.2810 210° Southwest 360 414 34,000  Level FlightAware
06:41PM 44.6280 143.2150 210° Southwest 367 422 34,000  Level FlightAware
06:42PM 44.5670 143.1650 210° Southwest 368 423 34,000  Level FlightAware
06:42PM 44.5060 143.1170 209° Southwest 369 425 34,000  Level FlightAware
06:43PM 44.4590 143.0800 209° Southwest 370 426 34,000  Level FlightAware
06:44PM 44.3750 143.0120 210° Southwest 370 426 34,000  Level FlightAware
06:45PM 44.2930 142.9470 210° Southwest 371 427 34,000  Level FlightAware
06:46PM 44.2240 142.8920 210° Southwest 371 427 34,000  Level FlightAware
06:46PM 44.1450 142.8300 209° Southwest 372 428 34,000  Level FlightAware
06:47PM 44.0580 142.7620 209° Southwest 373 429 34,000  Level FlightAware
06:48PM 43.9740 142.6960 209° Southwest 374 430 34,000  Level FlightAware
06:49PM 43.8990 142.6370 210° Southwest 374 430 34,000  Level FlightAware
06:50PM 43.8220 142.5770 209° Southwest 369 425 34,000  Level FlightAware
06:51PM 43.7550 142.5250 209° Southwest 369 425 34,000  Level FlightAware
06:51PM 43.7050 142.4860 209° Southwest 370 426 34,000  Level FlightAware
06:52PM 43.6380 142.4340 209° Southwest 377 434 34,000  Level FlightAware
06:53PM 43.5680 142.3770 211° Southwest 377 434 34,000  Level FlightAware
06:54PM 43.5080 142.3290 210° Southwest 371 427 34,000  Level FlightAware
06:55PM 43.4130 142.2530 210° Southwest 380 437 34,000  Level FlightAware
06:55PM 43.3500 142.2020 210° Southwest 380 437 34,000  Level FlightAware
06:56PM 43.2660 142.1350 210° Southwest 382 440 34,000  Level FlightAware
06:57PM 43.1530 142.0450 210° Southwest 374 430 34,000  Level FlightAware
06:58PM 43.0670 141.9790 209° Southwest 376 433 34,000  Level FlightAware
06:59PM 43.0220 141.9440 210° Southwest 375 432 34,000  Level FlightAware
06:59PM 42.9750 141.9080 209° Southwest 375 432 34,000  Level FlightAware
07:00PM 42.8990 141.8490 210° Southwest 375 432 34,000  Level FlightAware
07:01PM 42.8220 141.7900 209° Southwest 375 432 34,000  Level FlightAware
07:02PM 42.7450 141.7310 209° Southwest 375 432 34,000  Level FlightAware
07:02PM 42.7060 141.7010 209° Southwest 375 432 34,000  Level FlightAware
07:03PM 42.6260 141.6280 214° Southwest 377 434 34,000  Level FlightAware
07:04PM 42.5560 141.5610 215° Southwest 378 435 34,000  Level FlightAware
07:04PM 42.5110 141.5180 215° Southwest 378 435 34,000  Level FlightAware
07:05PM 42.4320 141.4440 215° Southwest 377 434 34,000  Level FlightAware
07:06PM 42.3470 141.3640 215° Southwest 376 433 34,000  Level FlightAware
07:07PM 42.2930 141.3130 215° Southwest 375 432 34,000  Level FlightAware
07:08PM 42.2410 141.2640 215° Southwest 373 429 34,000  Level FlightAware
07:08PM 42.1990 141.2240 215° Southwest 372 428 34,000  Level FlightAware
07:09PM 42.1130 141.1440 215° Southwest 373 429 34,000  Level FlightAware
07:10PM 42.0500 141.0860 214° Southwest 373 429 34,000  Level FlightAware
07:11PM 41.9780 141.0200 214° Southwest 368 423 34,000  Level FlightAware
07:11PM 41.9570 141.0010 214° Southwest 368 423 34,000  Level FlightAware
07:12PM 41.8940 140.9450 213° Southwest 373 429 34,000  Level FlightAware
07:12PM 41.8520 140.9070 214° Southwest 373 429 34,000  Level FlightAware
07:13PM 41.7720 140.8380 213° Southwest 373 429 34,000  Level FlightAware
07:14PM 41.6880 140.7930 202° Southwest 392 451 34,000  Level FlightAware
07:15PM 41.6090 140.7560 199° South 394 453 34,000  Level FlightAware
07:15PM 41.5590 140.7330 199° South 395 455 34,000  Level FlightAware
07:16PM 41.4630 140.6880 199° South 396 456 34,000  Level FlightAware
07:17PM 41.3680 140.6440 199° South 396 456 34,000  Level FlightAware
07:18PM 41.2640 140.5950 200° South 396 456 34,000  Level FlightAware
07:19PM 41.1870 140.5600 199° South 395 455 34,000  Level FlightAware
07:19PM 41.1340 140.5360 199° South 395 455 34,000  Level FlightAware
07:20PM 41.0490 140.4970 199° South 394 453 34,000  Level FlightAware
07:21PM 41.0060 140.4770 199° South 395 455 34,000  Level FlightAware
07:22PM 40.9000 140.4280 199° South 396 456 34,000  Level FlightAware
07:22PM 40.8050 140.3850 199° South 389 448 34,000  Level FlightAware
07:23PM 40.7270 140.3490 199° South 390 449 34,000  Level FlightAware
07:24PM 40.6390 140.3090 199° South 390 449 34,000  Level FlightAware
07:25PM 40.5520 140.2700 199° South 392 451 34,000  Level FlightAware
07:25PM 40.5000 140.2460 199° South 392 451 34,000  Level FlightAware
07:26PM 40.4400 140.2190 199° South 391 450 34,000  Level FlightAware
07:27PM 40.3440 140.1760 199° South 392 451 34,000  Level FlightAware
07:27PM 40.2900 140.1520 199° South 393 452 34,000  Level FlightAware
07:28PM 40.2300 140.1250 199° South 394 453 34,000  Level FlightAware
07:29PM 40.1590 140.0930 199° South 395 455 34,000  Level FlightAware
07:29PM 40.0700 140.0530 199° South 395 455 34,000  Level FlightAware
07:30PM 40.0170 140.0290 199° South 396 456 34,000  Level FlightAware
07:31PM 39.9210 139.9840 200° South 408 470 34,000  Level FlightAware
07:31PM 39.8590 139.9560 199° South 409 471 34,000  Level FlightAware
07:32PM 39.7690 139.9150 199° South 409 471 34,000  Level FlightAware
07:33PM 39.7150 139.8900 200° South 410 472 34,000  Level FlightAware
07:34PM 39.6260 139.8500 199° South 408 470 34,000  Level FlightAware
07:35PM 39.5330 139.8070 200° South 408 470 34,000  Level FlightAware
07:35PM 39.4480 139.7690 199° South 406 467 34,000  Level FlightAware
07:36PM 39.3400 139.7200 199° South 405 466 34,000  Level FlightAware
07:37PM 39.2870 139.6960 199° South 406 467 34,000  Level FlightAware
07:38PM 39.1960 139.6530 200° South 402 463 34,000  Level FlightAware
07:38PM 39.1470 139.6170 210° Southwest 395 455 34,000  Level FlightAware
07:39PM 39.0790 139.5360 223° Southwest 388 447 34,000  Level FlightAware
07:40PM 39.0380 139.4820 226° Southwest 388 447 34,000  Level FlightAware
07:41PM 38.9600 139.3810 225° Southwest 388 447 34,000  Level FlightAware
07:41PM 38.8990 139.3020 225° Southwest 387 445 34,000  Level FlightAware
07:42PM 38.8340 139.2190 225° Southwest 386 444 34,000  Level FlightAware
07:43PM 38.7630 139.1300 224° Southwest 382 440 34,000  Level FlightAware
07:44PM 38.7020 139.0570 223° Southwest 384 442 34,000  Level FlightAware
07:45PM 38.6380 138.9800 223° Southwest 384 442 34,000  Level FlightAware
07:46PM 38.5630 138.8900 223° Southwest 390 449 34,000  Level FlightAware
07:47PM 38.4970 138.8110 223° Southwest 392 451 34,000  Level FlightAware
07:48PM 38.4170 138.7160 223° Southwest 385 443 34,000  Level FlightAware
07:48PM 38.3580 138.6450 223° Southwest 392 451 34,000  Level FlightAware
07:49PM 38.3060 138.5840 223° Southwest 392 451 34,000  Level FlightAware
07:50PM 38.2380 138.5040 223° Southwest 393 452 34,000  Level FlightAware
07:50PM 38.2060 138.4660 223° Southwest 394 453 34,000  Level FlightAware
07:51PM 38.1600 138.4120 223° Southwest 394 453 34,000  Level FlightAware
07:52PM 38.0770 138.3150 223° Southwest 394 453 34,000  Level FlightAware
07:52PM 38.0360 138.2670 223° Southwest 394 453 34,000  Level FlightAware
07:53PM 37.9990 138.2230 223° Southwest 394 453 34,000  Level FlightAware
07:54PM 37.9300 138.1420 223° Southwest 394 453 34,000  Level FlightAware
07:55PM 37.8560 138.0560 223° Southwest 394 453 34,000  Level FlightAware
07:55PM 37.7900 137.9790 223° Southwest 394 453 34,000  Level FlightAware
07:56PM 37.7330 137.9130 222° Southwest 394 453 34,000  Level FlightAware
07:57PM 37.6390 137.7940 225° Southwest 389 448 34,000  Level FlightAware
07:58PM 37.6110 137.7450 234° Southwest 395 455 34,000  Level FlightAware
07:59PM 37.5590 137.6510 235° Southwest 397 457 34,000  Level FlightAware
07:59PM 37.5010 137.5470 235° Southwest 398 458 34,000  Level FlightAware
08:00PM 37.4570 137.4660 236° Southwest 399 459 34,000  Level FlightAware
08:01PM 37.4180 137.3980 234° Southwest 399 459 34,000  Level FlightAware
08:01PM 37.3920 137.3490 236° Southwest 399 459 34,000  Level FlightAware
08:02PM 37.3590 137.2910 234° Southwest 399 459 34,000  Level FlightAware
08:03PM 37.3010 137.1870 235° Southwest 400 460 34,000  Level FlightAware
08:03PM 37.2740 137.1390 235° Southwest 401 461 34,000  Level FlightAware
08:04PM 37.2160 137.0360 235° Southwest 402 463 34,000  Level FlightAware
08:05PM 37.1620 136.9400 235° Southwest 403 464 34,000  Level FlightAware
08:06PM 37.1090 136.8460 235° Southwest 403 464 34,000  Level FlightAware
08:07PM 37.0540 136.7480 235° Southwest 402 463 34,000  Level FlightAware
08:07PM 37.0050 136.6630 234° Southwest 401 461 34,000  Level FlightAware
08:08PM 36.9520 136.5700 235° Southwest 400 460 34,000  Level FlightAware
08:09PM 36.8970 136.4740 234° Southwest 399 459 34,000  Level FlightAware
08:10PM 36.8490 136.3900 234° Southwest 397 457 34,000  Level FlightAware
08:11PM 36.7960 136.2970 235° Southwest 397 457 34,000  Level FlightAware
08:11PM 36.7650 136.2430 234° Southwest 397 457 34,000  Level FlightAware
08:12PM 36.6940 136.1210 234° Southwest 398 458 34,000  Level FlightAware
08:13PM 36.6590 136.0590 235° Southwest 399 459 34,000  Level FlightAware
08:14PM 36.5910 135.9430 234° Southwest 400 460 34,000  Level FlightAware
08:14PM 36.5420 135.8600 234° Southwest 400 460 34,000  Level FlightAware
08:15PM 36.5050 135.7960 234° Southwest 402 463 34,000  Level FlightAware
08:16PM 36.4510 135.7030 234° Southwest 403 464 34,000  Level FlightAware
08:17PM 36.4040 135.6230 234° Southwest 405 466 34,000  Level FlightAware
08:17PM 36.3820 135.5860 234° Southwest 406 467 34,000 -780 Level FlightAware
08:18PM 36.3230 135.4850 234° Southwest 412 474 33,100 -1,140 Descending FlightAware
08:19PM 36.2640 135.3850 234° Southwest 416 479 32,100 -1,200 Descending FlightAware
08:20PM 36.2040 135.2830 234° Southwest 424 488 31,100 -1,200 Descending FlightAware
08:20PM 36.1460 135.1860 233° Southwest 411 473 30,100 -600 Descending FlightAware
08:21PM 36.0840 135.0820 234° Southwest 411 473 30,000 -60 Descending FlightAware
08:22PM 36.0140 134.9640 234° Southwest 438 504 30,000  Level FlightAware
08:23PM 35.9450 134.8500 233° Southwest 436 502 30,000  Level FlightAware
08:24PM 35.8900 134.7590 233° Southwest 431 496 30,000  Level FlightAware
08:25PM 35.8060 134.6530 226° Southwest 432 497 30,000 -120 Level FlightAware
08:26PM 35.7000 134.5790 210° Southwest 437 503 29,800 -900 Descending FlightAware
08:27PM 35.5930 134.5060 209° Southwest 445 512 28,200 -1,860 Descending FlightAware
08:28PM 35.5000 134.4430 209° Southwest 430 495 26,400 -2,280 Descending FlightAware
08:29PM 35.4060 134.3780 209° Southwest 412 474 24,300 -2,100 Descending FlightAware
08:30PM 35.3240 134.3230 209° Southwest 399 459 22,600 -1,920 Descending FlightAware
08:30PM 35.2490 134.2720 209° Southwest 403 464 21,100 -2,040 Descending FlightAware
08:32PM 35.1310 134.1920 209° Southwest 386 444 18,700 -1,980 Descending FlightAware
08:32PM 35.0840 134.1610 208° Southwest 382 440 17,800 -1,680 Descending FlightAware
08:33PM 34.9990 134.1030 209° Southwest 372 428 16,400 -1,080 Descending FlightAware
08:34PM 34.9250 134.0700 200° South 372 428 16,000 -360 Descending FlightAware
08:34PM 34.8870 134.0730 176° South 375 432 16,000  Level FlightAware
08:35PM 34.8440 134.0950 157° South 373 429 16,000  Level FlightAware
08:35PM 34.7980 134.1270 150° Southeast 376 433 16,000 -240 Level FlightAware
08:36PM 34.7280 134.1760 150° Southeast 367 422 15,700 -1,380 Descending FlightAware
08:37PM 34.6470 134.2300 151° Southeast 353 406 13,700 -2,340 Descending FlightAware
08:38PM 34.5860 134.2810 145° Southeast 355 409 12,000 -1,560 Descending FlightAware
08:38PM 34.5310 134.3350 141° Southeast 312 359 11,400 -780 Descending FlightAware
08:39PM 34.5090 134.3570 141° Southeast 298 343 11,200 -840 Descending FlightAware
08:40PM 34.4530 134.4140 140° Southeast 276 318 10,400 -840 Descending FlightAware
08:40PM 34.4140 134.4520 141° Southeast 272 313 9,900 -780 Descending FlightAware
08:41PM 34.3910 134.4750 140° Southeast 255 293 9,600 -1,020 Descending FlightAware
08:41PM 34.3630 134.5020 141° Southeast 249 287 9,000 -1,320 Descending FlightAware
08:42PM 34.3390 134.5250 142° Southeast 250 288 8,400 -1,440 Descending FlightAware
08:42PM 34.3150 134.5470 143° Southeast 262 302 7,800 -1,500 Descending FlightAware
08:42PM 34.2950 134.5640 145° Southeast 256 295 7,300 -1,380 Descending FlightAware
08:43PM 34.2700 134.5860 144° Southeast 262 302 6,800 -960 Descending FlightAware
08:43PM 34.2460 134.6070 144° Southeast 253 291 6,500 -540 Descending FlightAware
08:43PM 34.2270 134.6230 145° Southeast 237 273 6,400 -360 Descending FlightAware
08:44PM 34.1970 134.6490 144° Southeast 220 253 6,200 -240 Descending FlightAware
08:44PM 34.1750 134.6680 144° Southeast 224 258 6,200  Level FlightAware
08:45PM 34.1610 134.6850 135° Southeast 224 258 6,200  Level FlightAware
08:45PM 34.1580 134.7240 95° East 232 267 6,200  Level FlightAware
08:46PM 34.1570 134.7490 93° East 235 270 6,200  Level FlightAware
08:46PM 34.1740 134.7950 66° East 233 268 6,200 -480 Level FlightAware
08:47PM 34.1910 134.8290 59° Northeast 230 265 5,700 -900 Descending FlightAware
08:47PM 34.1970 134.8400 57° Northeast 229 264 5,600 -960 Descending FlightAware
08:47PM 34.1580 134.7220 248° West 232 267 5,100 -900 Descending FlightAware
08:48PM 34.2360 134.9150 64° Northeast 227 261 4,600 -840 Descending FlightAware
08:48PM 34.2420 134.9260 57° Northeast 223 257 4,400 -540 Descending FlightAware
08:49PM 34.2640 134.9620 54° Northeast 225 259 4,200 -240 Descending FlightAware
08:49PM 34.2760 134.9800 51° Northeast 225 259 4,200 -120 Level FlightAware
08:50PM 34.2970 135.0100 50° Northeast 224 258 4,100 -720 Descending FlightAware
08:50PM 34.3220 135.0480 51° Northeast 207 238 3,400 -1,080 Descending FlightAware
08:51PM 34.3390 135.0730 51° Northeast 189 217 2,900 -1,020 Descending FlightAware
08:51PM 34.3500 135.0900 52° Northeast 181 208 2,500 -900 Descending FlightAware
08:52PM 34.3680 135.1170 51° Northeast 169 194 2,000 -900 Descending FlightAware
08:52PM 34.3850 135.1420 51° Northeast 143 165 1,500 -780 Descending FlightAware
08:53PM 34.3970 135.1590 49° Northeast 129 148 1,200 -720 Descending FlightAware
08:53PM 34.4070 135.1750 53° Northeast 130 150 800 -780 Descending FlightAware
08:54PM 34.4120 135.1820 49° Northeast 129 148 700 -660 Descending FlightAware
08:54PM 34.4290 135.2070 50° Northeast 132 152 200 -720 Descending FlightAware
08:55PM 34.4360 135.2170 50° Northeast 133 153 -600 Descending FlightAware
08:55PM 34.4460 135.2320 51° Northeast 133 153  Level FlightAware
08:55PM 34.4380 135.2230 223° Southwest 133 153  Level FlightAware
08:56PM 34.4480 135.2370 49° Northeast 133 153  Level FlightAware
08:59PM 34.4273 135.2441 206° Southwest  Level Estimated
09:00PM 34.4273 135.2441 206° Southwest  Level Estimated
09:01PM 34.4273 135.2441 206° Southwest  Level Estimated
09:02PM 34.4273 135.2441 206° Southwest  Level Estimated
09:03PM 34.4273 135.2441 206° Southwest  Level Estimated
09:04PM 34.4273 135.2441 206° Southwest  Level Estimated
09:05PM 34.4273 135.2441 206° Southwest  Level Estimated
09:06PM 34.4273 135.2441 206° Southwest  Level Estimated
09:07PM 34.4273 135.2441 206° Southwest  Level Estimated
09:08PM 34.4273 135.2441 206° Southwest  Level Estimated
09:09PM 34.4273 135.2441 206° Southwest  Level Estimated
09:10PM 34.4273 135.2441 206° Southwest  Level Estimated
09:11PM 34.4273 135.2441 206° Southwest  Level Estimated
09:12PM 34.4273 135.2441 206° Southwest  Level Estimated
09:13PM 34.4273 135.2441 206° Southwest  Level Estimated
09:14PM 34.4273 135.2441 206° Southwest  Level Estimated
09:15PM 34.4273 135.2441 206° Southwest  Level Estimated
09:16PM 34.4273 135.2441 206° Southwest  Level Estimated
09:17PM 34.4273 135.2441 206° Southwest  Level Estimated
09:18PM 34.4273 135.2441 206° Southwest  Level Estimated
09:19PM 34.4273 135.2441 206° Southwest  Level Estimated
09:20PM 34.4273 135.2441 206° Southwest  Level Estimated
09:21PM 34.4273 135.2441 206° Southwest  Level Estimated
09:22PM 34.4273 135.2441 206° Southwest  Level Estimated
09:23PM 34.4273 135.2441 206° Southwest  Level Estimated
09:24PM 34.4273 135.2441 206° Southwest  Level Estimated
09:25PM 34.4273 135.2441 206° Southwest  Level Estimated
09:26PM 34.4273 135.2441 206° Southwest  Level Estimated
09:27PM 34.4273 135.2441 206° Southwest  Level Estimated
09:28PM 34.4273 135.2441 206° Southwest  Level Estimated
09:29PM 34.4273 135.2441 206° Southwest  Level Estimated
09:30PM 34.4273 135.2441 206° Southwest  Level Estimated
09:31PM 34.4273 135.2441 206° Southwest  Level Estimated
09:32PM 34.4273 135.2441 206° Southwest  Level Estimated
09:33PM 34.4273 135.2441 206° Southwest  Level Estimated
09:34PM 34.4273 135.2441 206° Southwest  Level Estimated
09:35PM 34.4273 135.2441 206° Southwest  Level Estimated
09:36PM 34.4273 135.2441 206° Southwest  Level Estimated
09:37PM 34.4273 135.2441 206° Southwest  Level Estimated